sensor_id;sensor_type;location;lat;lon;timestamp;P1;durP1;ratioP1;P2;durP2;ratioP2
42196;SDS011;27866;48.146;17.098;2023-11-21T00:03:18;7.00;;;1.83;;
42196;SDS011;27866;48.146;17.098;2023-11-21T00:07:31;5.47;;;1.75;;
42196;SDS011;27866;48.146;17.098;2023-11-21T00:11:42;6.13;;;1.70;;
42196;SDS011;27866;48.146;17.098;2023-11-21T00:15:54;6.47;;;1.90;;
42196;SDS011;27866;48.146;17.098;2023-11-21T00:20:06;5.82;;;1.85;;
42196;SDS011;27866;48.146;17.098;2023-11-21T00:24:18;7.35;;;1.85;;
42196;SDS011;27866;48.146;17.098;2023-11-21T00:28:29;8.00;;;2.08;;
42196;SDS011;27866;48.146;17.098;2023-11-21T00:32:40;5.82;;;2.10;;
42196;SDS011;27866;48.146;17.098;2023-11-21T00:36:52;8.65;;;2.20;;
42196;SDS011;27866;48.146;17.098;2023-11-21T00:41:03;5.50;;;1.80;;
42196;SDS011;27866;48.146;17.098;2023-11-21T00:45:14;7.00;;;2.00;;
42196;SDS011;27866;48.146;17.098;2023-11-21T00:49:25;6.53;;;2.00;;
42196;SDS011;27866;48.146;17.098;2023-11-21T00:53:38;4.72;;;1.77;;
42196;SDS011;27866;48.146;17.098;2023-11-21T00:57:49;3.95;;;1.60;;
42196;SDS011;27866;48.146;17.098;2023-11-21T01:02:01;8.07;;;2.10;;
42196;SDS011;27866;48.146;17.098;2023-11-21T01:06:12;9.30;;;2.13;;
42196;SDS011;27866;48.146;17.098;2023-11-21T01:10:23;6.85;;;2.33;;
42196;SDS011;27866;48.146;17.098;2023-11-21T01:14:35;8.00;;;2.13;;
42196;SDS011;27866;48.146;17.098;2023-11-21T01:18:46;5.70;;;2.05;;
42196;SDS011;27866;48.146;17.098;2023-11-21T01:22:57;5.50;;;2.03;;
42196;SDS011;27866;48.146;17.098;2023-11-21T01:27:09;9.32;;;1.80;;
42196;SDS011;27866;48.146;17.098;2023-11-21T01:31:20;7.72;;;1.75;;
42196;SDS011;27866;48.146;17.098;2023-11-21T01:35:31;4.75;;;1.98;;
42196;SDS011;27866;48.146;17.098;2023-11-21T01:39:43;5.95;;;2.00;;
42196;SDS011;27866;48.146;17.098;2023-11-21T01:43:55;8.30;;;2.20;;
42196;SDS011;27866;48.146;17.098;2023-11-21T01:48:07;11.32;;;2.08;;
42196;SDS011;27866;48.146;17.098;2023-11-21T01:52:18;10.70;;;3.47;;
42196;SDS011;27866;48.146;17.098;2023-11-21T01:56:30;5.70;;;2.50;;
42196;SDS011;27866;48.146;17.098;2023-11-21T02:00:42;10.52;;;2.65;;
42196;SDS011;27866;48.146;17.098;2023-11-21T02:05:57;8.48;;;2.90;;
42196;SDS011;27866;48.146;17.098;2023-11-21T02:10:10;9.90;;;2.97;;
42196;SDS011;27866;48.146;17.098;2023-11-21T02:14:25;9.40;;;2.88;;
42196;SDS011;27866;48.146;17.098;2023-11-21T02:18:38;11.27;;;2.55;;
42196;SDS011;27866;48.146;17.098;2023-11-21T02:22:50;8.13;;;2.72;;
42196;SDS011;27866;48.146;17.098;2023-11-21T02:27:11;6.70;;;2.33;;
42196;SDS011;27866;48.146;17.098;2023-11-21T02:31:23;6.90;;;2.13;;
42196;SDS011;27866;48.146;17.098;2023-11-21T02:35:34;6.90;;;2.15;;
42196;SDS011;27866;48.146;17.098;2023-11-21T02:39:45;7.53;;;2.17;;
42196;SDS011;27866;48.146;17.098;2023-11-21T02:43:56;7.20;;;2.17;;
42196;SDS011;27866;48.146;17.098;2023-11-21T02:48:08;6.47;;;2.25;;
42196;SDS011;27866;48.146;17.098;2023-11-21T02:52:19;5.05;;;2.38;;
42196;SDS011;27866;48.146;17.098;2023-11-21T02:56:31;7.75;;;2.45;;
42196;SDS011;27866;48.146;17.098;2023-11-21T03:00:43;6.53;;;2.50;;
42196;SDS011;27866;48.146;17.098;2023-11-21T03:36:30;3.83;;;1.90;;
42196;SDS011;27866;48.146;17.098;2023-11-21T03:40:41;6.90;;;2.42;;
42196;SDS011;27866;48.146;17.098;2023-11-21T03:44:53;8.48;;;2.45;;
42196;SDS011;27866;48.146;17.098;2023-11-21T03:49:04;5.43;;;2.28;;
42196;SDS011;27866;48.146;17.098;2023-11-21T03:53:16;4.65;;;2.22;;
42196;SDS011;27866;48.146;17.098;2023-11-21T03:57:27;5.20;;;2.22;;
42196;SDS011;27866;48.146;17.098;2023-11-21T04:01:38;9.55;;;3.20;;
42196;SDS011;27866;48.146;17.098;2023-11-21T04:05:49;7.25;;;2.50;;
42196;SDS011;27866;48.146;17.098;2023-11-21T04:10:00;5.68;;;2.00;;
42196;SDS011;27866;48.146;17.098;2023-11-21T04:14:13;4.85;;;2.45;;
42196;SDS011;27866;48.146;17.098;2023-11-21T04:18:24;6.38;;;2.70;;
42196;SDS011;27866;48.146;17.098;2023-11-21T04:22:42;8.77;;;2.60;;
42196;SDS011;27866;48.146;17.098;2023-11-21T04:26:54;6.97;;;2.08;;
42196;SDS011;27866;48.146;17.098;2023-11-21T04:31:06;6.28;;;2.45;;
42196;SDS011;27866;48.146;17.098;2023-11-21T04:35:17;4.95;;;2.10;;
42196;SDS011;27866;48.146;17.098;2023-11-21T04:39:28;5.15;;;1.95;;
42196;SDS011;27866;48.146;17.098;2023-11-21T04:43:39;7.85;;;2.58;;
42196;SDS011;27866;48.146;17.098;2023-11-21T04:47:50;7.22;;;2.83;;
42196;SDS011;27866;48.146;17.098;2023-11-21T04:52:03;5.45;;;2.08;;
42196;SDS011;27866;48.146;17.098;2023-11-21T04:56:15;8.27;;;2.25;;
42196;SDS011;27866;48.146;17.098;2023-11-21T05:00:26;6.32;;;1.95;;
42196;SDS011;27866;48.146;17.098;2023-11-21T05:04:37;4.93;;;1.98;;
42196;SDS011;27866;48.146;17.098;2023-11-21T05:08:48;9.43;;;2.08;;
42196;SDS011;27866;48.146;17.098;2023-11-21T05:13:00;6.90;;;2.00;;
42196;SDS011;27866;48.146;17.098;2023-11-21T05:17:11;7.47;;;2.00;;
42196;SDS011;27866;48.146;17.098;2023-11-21T05:21:22;6.03;;;2.47;;
42196;SDS011;27866;48.146;17.098;2023-11-21T05:25:35;8.02;;;2.55;;
42196;SDS011;27866;48.146;17.098;2023-11-21T05:29:50;7.07;;;3.47;;
42196;SDS011;27866;48.146;17.098;2023-11-21T05:34:01;6.78;;;2.50;;
42196;SDS011;27866;48.146;17.098;2023-11-21T05:38:12;9.52;;;2.75;;
42196;SDS011;27866;48.146;17.098;2023-11-21T05:42:23;7.60;;;3.17;;
42196;SDS011;27866;48.146;17.098;2023-11-21T05:46:34;6.85;;;3.10;;
42196;SDS011;27866;48.146;17.098;2023-11-21T05:50:45;8.95;;;3.58;;
42196;SDS011;27866;48.146;17.098;2023-11-21T05:54:56;7.50;;;3.45;;
42196;SDS011;27866;48.146;17.098;2023-11-21T05:59:07;8.20;;;3.20;;
42196;SDS011;27866;48.146;17.098;2023-11-21T06:03:18;7.22;;;3.50;;
42196;SDS011;27866;48.146;17.098;2023-11-21T06:07:30;11.23;;;2.83;;
42196;SDS011;27866;48.146;17.098;2023-11-21T06:11:41;10.80;;;3.35;;
42196;SDS011;27866;48.146;17.098;2023-11-21T06:15:52;9.93;;;3.88;;
42196;SDS011;27866;48.146;17.098;2023-11-21T06:20:05;13.00;;;6.13;;
42196;SDS011;27866;48.146;17.098;2023-11-21T06:24:21;11.93;;;3.85;;
42196;SDS011;27866;48.146;17.098;2023-11-21T06:28:33;12.65;;;5.45;;
42196;SDS011;27866;48.146;17.098;2023-11-21T06:32:44;12.85;;;4.15;;
42196;SDS011;27866;48.146;17.098;2023-11-21T06:36:56;7.65;;;3.17;;
42196;SDS011;27866;48.146;17.098;2023-11-21T06:41:07;8.20;;;3.47;;
42196;SDS011;27866;48.146;17.098;2023-11-21T06:45:18;15.32;;;4.85;;
42196;SDS011;27866;48.146;17.098;2023-11-21T06:49:30;11.70;;;4.40;;
42196;SDS011;27866;48.146;17.098;2023-11-21T06:53:41;18.35;;;4.35;;
42196;SDS011;27866;48.146;17.098;2023-11-21T06:57:52;14.95;;;3.58;;
42196;SDS011;27866;48.146;17.098;2023-11-21T07:02:04;15.80;;;4.25;;
42196;SDS011;27866;48.146;17.098;2023-11-21T07:06:16;8.82;;;3.42;;
42196;SDS011;27866;48.146;17.098;2023-11-21T07:10:28;14.40;;;3.85;;
42196;SDS011;27866;48.146;17.098;2023-11-21T07:14:39;13.52;;;3.60;;
42196;SDS011;27866;48.146;17.098;2023-11-21T07:18:53;16.08;;;4.95;;
42196;SDS011;27866;48.146;17.098;2023-11-21T07:23:05;21.00;;;4.07;;
42196;SDS011;27866;48.146;17.098;2023-11-21T07:27:16;11.65;;;4.35;;
42196;SDS011;27866;48.146;17.098;2023-11-21T07:31:29;9.27;;;3.42;;
42196;SDS011;27866;48.146;17.098;2023-11-21T07:35:41;9.05;;;2.90;;
42196;SDS011;27866;48.146;17.098;2023-11-21T07:39:52;11.95;;;3.47;;
42196;SDS011;27866;48.146;17.098;2023-11-21T07:44:07;12.23;;;3.70;;
42196;SDS011;27866;48.146;17.098;2023-11-21T07:48:18;42.58;;;20.08;;
42196;SDS011;27866;48.146;17.098;2023-11-21T07:52:29;23.70;;;5.72;;
42196;SDS011;27866;48.146;17.098;2023-11-21T07:56:40;14.95;;;4.10;;
42196;SDS011;27866;48.146;17.098;2023-11-21T08:00:52;10.10;;;3.08;;
42196;SDS011;27866;48.146;17.098;2023-11-21T08:05:03;17.45;;;3.50;;
42196;SDS011;27866;48.146;17.098;2023-11-21T08:09:14;16.83;;;4.63;;
42196;SDS011;27866;48.146;17.098;2023-11-21T08:13:28;29.90;;;5.03;;
42196;SDS011;27866;48.146;17.098;2023-11-21T08:17:42;37.95;;;6.40;;
42196;SDS011;27866;48.146;17.098;2023-11-21T08:21:53;36.58;;;5.10;;
42196;SDS011;27866;48.146;17.098;2023-11-21T08:26:05;20.23;;;4.22;;
42196;SDS011;27866;48.146;17.098;2023-11-21T08:30:17;47.00;;;6.50;;
42196;SDS011;27866;48.146;17.098;2023-11-21T08:34:29;33.17;;;4.88;;
42196;SDS011;27866;48.146;17.098;2023-11-21T08:38:40;17.25;;;4.90;;
42196;SDS011;27866;48.146;17.098;2023-11-21T08:42:51;15.57;;;4.53;;
42196;SDS011;27866;48.146;17.098;2023-11-21T08:47:03;13.20;;;5.63;;
42196;SDS011;27866;48.146;17.098;2023-11-21T08:51:15;9.45;;;4.95;;
42196;SDS011;27866;48.146;17.098;2023-11-21T08:55:26;12.43;;;5.95;;
42196;SDS011;27866;48.146;17.098;2023-11-21T08:59:38;11.00;;;4.88;;
42196;SDS011;27866;48.146;17.098;2023-11-21T09:03:50;13.13;;;4.75;;
42196;SDS011;27866;48.146;17.098;2023-11-21T09:08:01;13.23;;;4.72;;
42196;SDS011;27866;48.146;17.098;2023-11-21T09:12:12;12.90;;;4.78;;
42196;SDS011;27866;48.146;17.098;2023-11-21T09:16:24;8.15;;;3.10;;
42196;SDS011;27866;48.146;17.098;2023-11-21T09:20:35;12.23;;;3.00;;
42196;SDS011;27866;48.146;17.098;2023-11-21T09:24:46;11.32;;;3.30;;
42196;SDS011;27866;48.146;17.098;2023-11-21T09:28:58;11.63;;;3.38;;
42196;SDS011;27866;48.146;17.098;2023-11-21T09:33:10;11.75;;;4.07;;
42196;SDS011;27866;48.146;17.098;2023-11-21T09:37:21;13.32;;;3.67;;
42196;SDS011;27866;48.146;17.098;2023-11-21T09:41:34;11.88;;;3.42;;
42196;SDS011;27866;48.146;17.098;2023-11-21T09:45:56;12.98;;;3.47;;
42196;SDS011;27866;48.146;17.098;2023-11-21T09:50:12;14.38;;;3.70;;
42196;SDS011;27866;48.146;17.098;2023-11-21T09:54:30;11.43;;;3.42;;
42196;SDS011;27866;48.146;17.098;2023-11-21T09:58:42;7.05;;;2.92;;
42196;SDS011;27866;48.146;17.098;2023-11-21T10:02:53;9.30;;;3.47;;
42196;SDS011;27866;48.146;17.098;2023-11-21T10:07:07;8.93;;;3.42;;
42196;SDS011;27866;48.146;17.098;2023-11-21T10:11:19;16.30;;;3.92;;
42196;SDS011;27866;48.146;17.098;2023-11-21T10:15:33;10.82;;;4.30;;
42196;SDS011;27866;48.146;17.098;2023-11-21T10:19:46;14.43;;;4.22;;
42196;SDS011;27866;48.146;17.098;2023-11-21T10:24:00;9.52;;;3.25;;
42196;SDS011;27866;48.146;17.098;2023-11-21T10:28:12;9.55;;;3.45;;
42196;SDS011;27866;48.146;17.098;2023-11-21T10:32:27;8.52;;;3.45;;
42196;SDS011;27866;48.146;17.098;2023-11-21T10:36:42;10.57;;;4.10;;
42196;SDS011;27866;48.146;17.098;2023-11-21T10:40:54;12.07;;;3.40;;
42196;SDS011;27866;48.146;17.098;2023-11-21T10:45:05;7.72;;;2.80;;
42196;SDS011;27866;48.146;17.098;2023-11-21T10:49:24;11.25;;;2.78;;
42196;SDS011;27866;48.146;17.098;2023-11-21T10:53:40;9.60;;;2.72;;
42196;SDS011;27866;48.146;17.098;2023-11-21T10:57:52;9.93;;;2.72;;
42196;SDS011;27866;48.146;17.098;2023-11-21T11:02:40;6.32;;;2.63;;
42196;SDS011;27866;48.146;17.098;2023-11-21T11:06:50;7.78;;;2.30;;
42196;SDS011;27866;48.146;17.098;2023-11-21T11:11:06;5.20;;;2.10;;
42196;SDS011;27866;48.146;17.098;2023-11-21T11:15:20;5.97;;;2.20;;
42196;SDS011;27866;48.146;17.098;2023-11-21T11:19:32;8.73;;;3.28;;
42196;SDS011;27866;48.146;17.098;2023-11-21T11:24:05;7.95;;;2.42;;
42196;SDS011;27866;48.146;17.098;2023-11-21T11:34:06;6.22;;;2.40;;
42196;SDS011;27866;48.146;17.098;2023-11-21T11:38:46;5.43;;;2.08;;
42196;SDS011;27866;48.146;17.098;2023-11-21T11:43:01;7.63;;;2.25;;
42196;SDS011;27866;48.146;17.098;2023-11-21T11:47:13;8.05;;;2.63;;
42196;SDS011;27866;48.146;17.098;2023-11-21T11:51:48;28.92;;;3.60;;
42196;SDS011;27866;48.146;17.098;2023-11-21T11:56:45;5.55;;;2.15;;
42196;SDS011;27866;48.146;17.098;2023-11-21T12:00:59;5.40;;;2.00;;
42196;SDS011;27866;48.146;17.098;2023-11-21T12:05:18;5.43;;;2.20;;
42196;SDS011;27866;48.146;17.098;2023-11-21T12:09:33;8.23;;;2.67;;
42196;SDS011;27866;48.146;17.098;2023-11-21T12:13:45;10.15;;;3.47;;
42196;SDS011;27866;48.146;17.098;2023-11-21T12:17:58;6.15;;;2.03;;
42196;SDS011;27866;48.146;17.098;2023-11-21T12:22:09;12.10;;;2.67;;
42196;SDS011;27866;48.146;17.098;2023-11-21T12:26:22;8.20;;;2.47;;
42196;SDS011;27866;48.146;17.098;2023-11-21T12:30:35;6.00;;;2.23;;
42196;SDS011;27866;48.146;17.098;2023-11-21T12:34:48;5.93;;;2.38;;
42196;SDS011;27866;48.146;17.098;2023-11-21T12:39:00;14.55;;;3.03;;
42196;SDS011;27866;48.146;17.098;2023-11-21T12:43:13;16.42;;;2.22;;
42196;SDS011;27866;48.146;17.098;2023-11-21T12:47:24;6.63;;;2.35;;
42196;SDS011;27866;48.146;17.098;2023-11-21T12:51:36;4.75;;;1.92;;
42196;SDS011;27866;48.146;17.098;2023-11-21T12:55:47;3.78;;;1.90;;
42196;SDS011;27866;48.146;17.098;2023-11-21T13:00:01;5.80;;;1.80;;
42196;SDS011;27866;48.146;17.098;2023-11-21T13:04:21;4.95;;;2.00;;
42196;SDS011;27866;48.146;17.098;2023-11-21T13:08:41;4.05;;;2.03;;
42196;SDS011;27866;48.146;17.098;2023-11-21T13:12:55;4.65;;;1.92;;
42196;SDS011;27866;48.146;17.098;2023-11-21T13:17:08;5.80;;;2.67;;
42196;SDS011;27866;48.146;17.098;2023-11-21T13:21:21;11.60;;;2.78;;
42196;SDS011;27866;48.146;17.098;2023-11-21T13:25:32;8.80;;;2.95;;
42196;SDS011;27866;48.146;17.098;2023-11-21T13:29:44;5.93;;;2.33;;
42196;SDS011;27866;48.146;17.098;2023-11-21T13:33:55;9.73;;;2.70;;
42196;SDS011;27866;48.146;17.098;2023-11-21T13:38:10;13.10;;;4.40;;
42196;SDS011;27866;48.146;17.098;2023-11-21T13:42:22;9.55;;;3.42;;
42196;SDS011;27866;48.146;17.098;2023-11-21T13:46:36;13.85;;;3.65;;
42196;SDS011;27866;48.146;17.098;2023-11-21T13:50:47;12.00;;;4.43;;
42196;SDS011;27866;48.146;17.098;2023-11-21T13:55:17;9.93;;;3.83;;
42196;SDS011;27866;48.146;17.098;2023-11-21T13:59:28;5.05;;;3.35;;
42196;SDS011;27866;48.146;17.098;2023-11-21T14:03:42;13.25;;;3.13;;
42196;SDS011;27866;48.146;17.098;2023-11-21T14:08:02;12.88;;;3.90;;
42196;SDS011;27866;48.146;17.098;2023-11-21T14:12:15;11.13;;;3.95;;
42196;SDS011;27866;48.146;17.098;2023-11-21T14:16:26;16.83;;;4.07;;
42196;SDS011;27866;48.146;17.098;2023-11-21T14:20:37;8.40;;;2.70;;
42196;SDS011;27866;48.146;17.098;2023-11-21T14:24:50;11.73;;;4.22;;
42196;SDS011;27866;48.146;17.098;2023-11-21T14:29:02;8.95;;;4.60;;
42196;SDS011;27866;48.146;17.098;2023-11-21T14:33:15;12.20;;;3.92;;
42196;SDS011;27866;48.146;17.098;2023-11-21T14:37:26;12.45;;;3.83;;
42196;SDS011;27866;48.146;17.098;2023-11-21T14:41:37;14.60;;;4.40;;
42196;SDS011;27866;48.146;17.098;2023-11-21T14:45:49;9.57;;;3.80;;
42196;SDS011;27866;48.146;17.098;2023-11-21T14:50:01;15.57;;;3.17;;
42196;SDS011;27866;48.146;17.098;2023-11-21T14:54:32;14.18;;;3.40;;
42196;SDS011;27866;48.146;17.098;2023-11-21T14:58:49;10.90;;;3.95;;
42196;SDS011;27866;48.146;17.098;2023-11-21T15:03:01;10.35;;;4.20;;
42196;SDS011;27866;48.146;17.098;2023-11-21T15:07:13;10.70;;;2.92;;
42196;SDS011;27866;48.146;17.098;2023-11-21T15:11:24;11.60;;;2.55;;
42196;SDS011;27866;48.146;17.098;2023-11-21T15:15:41;14.05;;;2.67;;
42196;SDS011;27866;48.146;17.098;2023-11-21T15:19:53;11.02;;;3.30;;
42196;SDS011;27866;48.146;17.098;2023-11-21T15:24:04;8.88;;;3.58;;
42196;SDS011;27866;48.146;17.098;2023-11-21T15:28:17;14.43;;;5.00;;
42196;SDS011;27866;48.146;17.098;2023-11-21T15:32:29;7.03;;;3.42;;
42196;SDS011;27866;48.146;17.098;2023-11-21T15:36:40;10.20;;;3.38;;
42196;SDS011;27866;48.146;17.098;2023-11-21T15:40:51;9.55;;;3.38;;
42196;SDS011;27866;48.146;17.098;2023-11-21T15:45:03;10.38;;;3.53;;
42196;SDS011;27866;48.146;17.098;2023-11-21T15:49:17;11.10;;;3.83;;
42196;SDS011;27866;48.146;17.098;2023-11-21T15:57:43;11.38;;;4.00;;
42196;SDS011;27866;48.146;17.098;2023-11-21T16:01:54;8.60;;;3.75;;
42196;SDS011;27866;48.146;17.098;2023-11-21T16:06:07;8.15;;;3.65;;
42196;SDS011;27866;48.146;17.098;2023-11-21T16:10:20;16.48;;;4.82;;
42196;SDS011;27866;48.146;17.098;2023-11-21T16:14:32;8.10;;;4.30;;
42196;SDS011;27866;48.146;17.098;2023-11-21T16:22:57;10.90;;;4.38;;
42196;SDS011;27866;48.146;17.098;2023-11-21T16:27:08;10.65;;;4.15;;
42196;SDS011;27866;48.146;17.098;2023-11-21T16:31:22;15.45;;;4.63;;
42196;SDS011;27866;48.146;17.098;2023-11-21T16:35:34;13.52;;;4.90;;
42196;SDS011;27866;48.146;17.098;2023-11-21T16:39:49;10.48;;;3.90;;
42196;SDS011;27866;48.146;17.098;2023-11-21T16:44:01;8.90;;;4.60;;
42196;SDS011;27866;48.146;17.098;2023-11-21T16:48:13;9.10;;;4.70;;
42196;SDS011;27866;48.146;17.098;2023-11-21T16:52:24;9.55;;;4.38;;
42196;SDS011;27866;48.146;17.098;2023-11-21T16:56:35;8.45;;;4.07;;
42196;SDS011;27866;48.146;17.098;2023-11-21T17:00:47;8.95;;;4.00;;
42196;SDS011;27866;48.146;17.098;2023-11-21T17:04:58;13.98;;;4.28;;
42196;SDS011;27866;48.146;17.098;2023-11-21T17:09:10;8.50;;;4.53;;
42196;SDS011;27866;48.146;17.098;2023-11-21T17:13:24;12.98;;;4.28;;
42196;SDS011;27866;48.146;17.098;2023-11-21T17:17:36;6.90;;;3.65;;
42196;SDS011;27866;48.146;17.098;2023-11-21T17:21:47;15.85;;;4.47;;
42196;SDS011;27866;48.146;17.098;2023-11-21T17:25:58;10.70;;;4.45;;
42196;SDS011;27866;48.146;17.098;2023-11-21T17:30:09;7.60;;;4.30;;
42196;SDS011;27866;48.146;17.098;2023-11-21T17:34:22;7.45;;;3.63;;
42196;SDS011;27866;48.146;17.098;2023-11-21T17:38:33;6.15;;;4.38;;
42196;SDS011;27866;48.146;17.098;2023-11-21T17:42:44;7.18;;;4.22;;
42196;SDS011;27866;48.146;17.098;2023-11-21T17:46:55;10.65;;;4.45;;
42196;SDS011;27866;48.146;17.098;2023-11-21T17:51:07;10.55;;;4.20;;
42196;SDS011;27866;48.146;17.098;2023-11-21T17:55:18;8.45;;;4.50;;
42196;SDS011;27866;48.146;17.098;2023-11-21T17:59:29;7.72;;;4.65;;
42196;SDS011;27866;48.146;17.098;2023-11-21T18:03:41;11.77;;;5.15;;
42196;SDS011;27866;48.146;17.098;2023-11-21T18:07:52;9.35;;;4.82;;
42196;SDS011;27866;48.146;17.098;2023-11-21T18:12:03;7.78;;;4.88;;
42196;SDS011;27866;48.146;17.098;2023-11-21T18:16:16;10.27;;;5.03;;
42196;SDS011;27866;48.146;17.098;2023-11-21T18:20:27;9.98;;;5.53;;
42196;SDS011;27866;48.146;17.098;2023-11-21T18:24:38;9.10;;;5.35;;
42196;SDS011;27866;48.146;17.098;2023-11-21T18:28:52;11.15;;;5.50;;
42196;SDS011;27866;48.146;17.098;2023-11-21T18:33:03;8.77;;;6.03;;
42196;SDS011;27866;48.146;17.098;2023-11-21T18:37:15;11.65;;;6.50;;
42196;SDS011;27866;48.146;17.098;2023-11-21T18:41:26;15.25;;;6.97;;
42196;SDS011;27866;48.146;17.098;2023-11-21T18:45:37;11.50;;;6.22;;
42196;SDS011;27866;48.146;17.098;2023-11-21T18:49:49;12.30;;;6.70;;
42196;SDS011;27866;48.146;17.098;2023-11-21T18:54:00;12.32;;;6.55;;
42196;SDS011;27866;48.146;17.098;2023-11-21T18:58:12;9.77;;;6.40;;
42196;SDS011;27866;48.146;17.098;2023-11-21T19:02:23;9.15;;;5.13;;
42196;SDS011;27866;48.146;17.098;2023-11-21T19:06:36;8.52;;;5.22;;
42196;SDS011;27866;48.146;17.098;2023-11-21T19:10:47;9.80;;;5.28;;
42196;SDS011;27866;48.146;17.098;2023-11-21T19:14:58;10.90;;;5.40;;
42196;SDS011;27866;48.146;17.098;2023-11-21T19:19:10;9.15;;;5.47;;
42196;SDS011;27866;48.146;17.098;2023-11-21T19:23:23;8.40;;;4.80;;
42196;SDS011;27866;48.146;17.098;2023-11-21T19:27:35;6.28;;;4.78;;
42196;SDS011;27866;48.146;17.098;2023-11-21T19:31:46;9.27;;;5.00;;
42196;SDS011;27866;48.146;17.098;2023-11-21T19:35:58;8.23;;;5.57;;
42196;SDS011;27866;48.146;17.098;2023-11-21T19:40:10;7.53;;;5.28;;
42196;SDS011;27866;48.146;17.098;2023-11-21T19:44:22;11.65;;;5.72;;
42196;SDS011;27866;48.146;17.098;2023-11-21T19:48:34;11.73;;;6.05;;
42196;SDS011;27866;48.146;17.098;2023-11-21T19:52:45;11.02;;;5.82;;
42196;SDS011;27866;48.146;17.098;2023-11-21T19:56:56;12.88;;;6.78;;
42196;SDS011;27866;48.146;17.098;2023-11-21T20:01:08;12.18;;;5.93;;
42196;SDS011;27866;48.146;17.098;2023-11-21T20:05:20;8.60;;;5.95;;
42196;SDS011;27866;48.146;17.098;2023-11-21T20:09:31;15.48;;;6.70;;
42196;SDS011;27866;48.146;17.098;2023-11-21T20:13:42;8.90;;;5.82;;
42196;SDS011;27866;48.146;17.098;2023-11-21T20:17:53;12.20;;;6.47;;
42196;SDS011;27866;48.146;17.098;2023-11-21T20:22:05;10.68;;;6.57;;
42196;SDS011;27866;48.146;17.098;2023-11-21T20:26:24;11.13;;;6.13;;
42196;SDS011;27866;48.146;17.098;2023-11-21T20:30:35;10.30;;;6.97;;
42196;SDS011;27866;48.146;17.098;2023-11-21T20:34:48;10.65;;;6.82;;
42196;SDS011;27866;48.146;17.098;2023-11-21T20:38:59;12.45;;;7.85;;
42196;SDS011;27866;48.146;17.098;2023-11-21T20:43:10;11.65;;;7.57;;
42196;SDS011;27866;48.146;17.098;2023-11-21T20:47:21;15.20;;;7.68;;
42196;SDS011;27866;48.146;17.098;2023-11-21T20:51:33;10.27;;;7.65;;
42196;SDS011;27866;48.146;17.098;2023-11-21T20:55:45;12.73;;;8.52;;
42196;SDS011;27866;48.146;17.098;2023-11-21T20:59:59;12.77;;;8.43;;
42196;SDS011;27866;48.146;17.098;2023-11-21T21:04:10;14.63;;;8.48;;
42196;SDS011;27866;48.146;17.098;2023-11-21T21:08:22;15.18;;;9.38;;
42196;SDS011;27866;48.146;17.098;2023-11-21T21:12:36;18.23;;;9.35;;
42196;SDS011;27866;48.146;17.098;2023-11-21T21:16:48;18.90;;;10.52;;
42196;SDS011;27866;48.146;17.098;2023-11-21T21:20:59;16.67;;;9.63;;
42196;SDS011;27866;48.146;17.098;2023-11-21T21:25:12;17.25;;;10.48;;
42196;SDS011;27866;48.146;17.098;2023-11-21T21:29:23;18.42;;;10.57;;
42196;SDS011;27866;48.146;17.098;2023-11-21T21:33:36;19.00;;;10.85;;
42196;SDS011;27866;48.146;17.098;2023-11-21T21:37:47;18.80;;;11.32;;
42196;SDS011;27866;48.146;17.098;2023-11-21T21:41:59;16.02;;;11.07;;
42196;SDS011;27866;48.146;17.098;2023-11-21T21:46:14;22.63;;;12.57;;
42196;SDS011;27866;48.146;17.098;2023-11-21T21:50:29;24.98;;;13.13;;
42196;SDS011;27866;48.146;17.098;2023-11-21T21:54:40;19.67;;;13.18;;
42196;SDS011;27866;48.146;17.098;2023-11-21T21:58:51;24.50;;;13.43;;
42196;SDS011;27866;48.146;17.098;2023-11-21T22:03:02;22.48;;;14.30;;
42196;SDS011;27866;48.146;17.098;2023-11-21T22:07:14;25.70;;;15.32;;
42196;SDS011;27866;48.146;17.098;2023-11-21T22:11:25;22.27;;;14.95;;
42196;SDS011;27866;48.146;17.098;2023-11-21T22:15:37;24.95;;;14.80;;
42196;SDS011;27866;48.146;17.098;2023-11-21T22:19:49;26.17;;;14.95;;
42196;SDS011;27866;48.146;17.098;2023-11-21T22:24:01;26.45;;;14.77;;
42196;SDS011;27866;48.146;17.098;2023-11-21T22:28:12;25.63;;;15.20;;
42196;SDS011;27866;48.146;17.098;2023-11-21T22:32:23;23.85;;;15.35;;
42196;SDS011;27866;48.146;17.098;2023-11-21T22:36:34;26.52;;;15.00;;
42196;SDS011;27866;48.146;17.098;2023-11-21T22:40:45;25.73;;;16.27;;
42196;SDS011;27866;48.146;17.098;2023-11-21T22:44:57;26.65;;;17.05;;
42196;SDS011;27866;48.146;17.098;2023-11-21T22:49:09;27.90;;;16.83;;
42196;SDS011;27866;48.146;17.098;2023-11-21T22:57:35;30.33;;;16.15;;
42196;SDS011;27866;48.146;17.098;2023-11-21T23:01:49;26.25;;;15.80;;
42196;SDS011;27866;48.146;17.098;2023-11-21T23:06:00;28.10;;;16.88;;
42196;SDS011;27866;48.146;17.098;2023-11-21T23:10:14;36.22;;;17.58;;
42196;SDS011;27866;48.146;17.098;2023-11-21T23:14:28;26.10;;;15.43;;
42196;SDS011;27866;48.146;17.098;2023-11-21T23:18:39;27.27;;;15.77;;
42196;SDS011;27866;48.146;17.098;2023-11-21T23:22:50;26.05;;;15.32;;
42196;SDS011;27866;48.146;17.098;2023-11-21T23:27:02;28.88;;;16.38;;
42196;SDS011;27866;48.146;17.098;2023-11-21T23:31:15;28.02;;;14.90;;
42196;SDS011;27866;48.146;17.098;2023-11-21T23:35:26;26.45;;;15.05;;
42196;SDS011;27866;48.146;17.098;2023-11-21T23:39:37;24.23;;;14.90;;
42196;SDS011;27866;48.146;17.098;2023-11-21T23:43:49;27.25;;;15.25;;
42196;SDS011;27866;48.146;17.098;2023-11-21T23:48:00;24.75;;;15.02;;
42196;SDS011;27866;48.146;17.098;2023-11-21T23:52:12;25.30;;;14.63;;
42196;SDS011;27866;48.146;17.098;2023-11-21T23:56:23;24.52;;;13.75;;
